Time;durP1;ratioP1;P1;durP2;ratioP2;P2;SDS_P1;SDS_P2;PMS_P1;PMS_P2;Temp;Humidity;BMP_temperature;BMP_pressure;BME280_temperature;BME280_humidity;BME280_pressure;Samples;Min_cycle;Max_cycle;Signal;HPM_P1;HPM_P2
2023/08/19 00:01:03;;;;;;;12.05;10.18;;;;;;;22.93;79.55;101471.56;7406787;19;19914;-77
2023/08/19 00:03:32;;;;;;;11.45;10.25;;;;;;;22.88;79.58;101466.81;7404094;19;19918;-77
2023/08/19 00:06:02;;;;;;;12.05;10.23;;;;;;;22.85;79.78;101467.31;7403850;19;19915;-77
2023/08/19 00:08:31;;;;;;;12.18;9.57;;;;;;;22.79;80.44;101467.44;7403597;19;19982;-77
2023/08/19 00:10:59;;;;;;;12.52;10.30;;;;;;;22.78;80.48;101461.09;7403737;19;20002;-77
2023/08/19 00:13:28;;;;;;;12.13;10.65;;;;;;;22.76;80.26;101466.00;7403538;19;19942;-78
2023/08/19 00:16:00;;;;;;;12.77;10.48;;;;;;;22.72;80.49;101461.25;7402160;19;19922;-78
2023/08/19 00:18:29;;;;;;;11.82;10.35;;;;;;;22.67;80.01;101461.09;7404417;19;19911;-77
2023/08/19 00:20:58;;;;;;;11.63;9.63;;;;;;;22.61;80.37;101457.41;7403633;19;19922;-77
2023/08/19 00:23:27;;;;;;;11.50;9.40;;;;;;;22.58;80.41;101463.38;7405851;19;19918;-78
2023/08/19 00:25:56;;;;;;;14.90;11.27;;;;;;;22.51;80.46;101458.03;7406238;19;19924;-77
2023/08/19 00:28:25;;;;;;;12.43;10.93;;;;;;;22.47;80.97;101453.28;7406944;19;20365;-77
2023/08/19 00:30:54;;;;;;;12.65;10.77;;;;;;;22.44;80.87;101451.00;7403717;19;19926;-79
2023/08/19 00:33:25;;;;;;;13.85;10.43;;;;;;;22.42;81.08;101447.66;7403395;19;19962;-77
2023/08/19 00:35:57;;;;;;;13.48;11.07;;;;;;;22.39;80.95;101440.72;7401876;19;19914;-77
2023/08/19 00:38:26;;;;;;;13.02;11.00;;;;;;;22.36;81.12;101443.13;7404109;19;19945;-78
2023/08/19 00:40:55;;;;;;;12.35;10.73;;;;;;;22.30;81.42;101433.97;7401201;19;19947;-76
2023/08/19 00:43:23;;;;;;;14.15;11.55;;;;;;;22.26;81.51;101438.28;7401208;19;20348;-77
2023/08/19 00:45:53;;;;;;;14.13;10.50;;;;;;;22.24;81.29;101436.81;7403505;19;19935;-77
2023/08/19 00:48:25;;;;;;;15.63;11.38;;;;;;;22.21;81.88;101432.66;7402482;19;19942;-77
2023/08/19 00:50:54;;;;;;;;;;;;;;;21.91;83.60;101423.69;7409514;19;20269;-76
2023/08/19 00:53:23;;;;;;;14.65;10.68;;;;;;;22.10;81.92;101425.25;7401749;19;19914;-77
2023/08/19 00:55:52;;;;;;;15.27;11.63;;;;;;;22.10;81.90;101425.25;7401767;19;19958;-77
2023/08/19 00:58:18;;;;;;;14.88;10.75;;;;;;;22.08;82.30;101421.94;7402056;19;20046;-76
2023/08/19 01:00:49;;;;;;;15.27;11.55;;;;;;;22.05;82.48;101425.13;7401868;19;19915;-77
2023/08/19 01:03:17;;;;;;;15.93;12.25;;;;;;;22.03;82.11;101421.81;7402224;19;19938;-77
2023/08/19 01:06:02;;;;;;;17.05;12.35;;;;;;;21.98;82.14;101417.03;7402193;19;19925;-77
2023/08/19 01:08:36;;;;;;;14.25;11.18;;;;;;;21.98;82.30;101425.25;7400671;19;19922;-77
2023/08/19 01:11:13;;;;;;;13.52;11.35;;;;;;;21.94;82.32;101415.00;7402199;19;19923;-77
2023/08/19 01:13:52;;;;;;;15.05;11.95;;;;;;;21.87;82.68;101415.09;7401872;19;19926;-76
2023/08/19 01:16:25;;;;;;;12.57;11.30;;;;;;;21.88;82.15;101413.16;7400210;19;19929;-77
2023/08/19 01:18:57;;;;;;;13.05;10.05;;;;;;;21.86;82.15;101412.59;7401808;19;20306;-77
2023/08/19 01:21:29;;;;;;;14.02;10.70;;;;;;;21.83;82.77;101416.63;7401555;19;19954;-77
2023/08/19 01:24:02;;;;;;;13.77;12.30;;;;;;;21.80;82.71;101419.84;7402000;19;19922;-77
2023/08/19 01:26:33;;;;;;;16.17;12.43;;;;;;;21.77;82.67;101411.28;7401354;19;20380;-77
2023/08/19 01:29:02;;;;;;;15.50;13.02;;;;;;;21.75;82.57;101411.50;7401281;19;19925;-77
2023/08/19 01:31:31;;;;;;;14.25;12.15;;;;;;;21.72;83.04;101417.47;7401275;19;19922;-78
2023/08/19 01:33:59;;;;;;;15.40;13.30;;;;;;;21.70;82.84;101420.44;7401465;19;19930;-77
2023/08/19 01:36:34;;;;;;;15.68;13.27;;;;;;;21.68;82.91;101411.63;7400123;19;19929;-77
2023/08/19 01:39:05;;;;;;;15.23;11.45;;;;;;;21.66;82.82;101424.72;7401153;19;19926;-77
2023/08/19 01:41:37;;;;;;;16.67;11.00;;;;;;;21.63;82.85;101422.47;7401593;19;20336;-77
2023/08/19 01:44:09;;;;;;;15.02;12.57;;;;;;;21.61;82.78;101413.66;7400876;19;19946;-76
2023/08/19 01:46:38;;;;;;;13.45;11.20;;;;;;;21.57;82.93;101412.44;7401130;19;19918;-77
2023/08/19 01:49:06;;;;;;;14.65;13.15;;;;;;;21.53;82.83;101416.72;7403021;19;20383;-76
2023/08/19 01:51:35;;;;;;;15.30;12.75;;;;;;;21.51;82.72;101418.03;7401077;19;19922;-77
2023/08/19 01:54:03;;;;;;;14.85;13.10;;;;;;;21.49;82.85;101410.03;7401071;19;19918;-77
2023/08/19 01:56:32;;;;;;;15.68;13.13;;;;;;;21.48;82.58;101416.63;7399984;19;19946;-77
2023/08/19 01:59:03;;;;;;;14.95;12.80;;;;;;;21.47;82.78;101417.69;7401462;19;20057;-76
2023/08/19 02:01:32;;;;;;;15.65;11.95;;;;;;;21.43;82.85;101419.22;7400947;19;19926;-78
2023/08/19 02:04:00;;;;;;;14.75;12.65;;;;;;;21.42;82.94;101427.66;7399259;19;19914;-78
2023/08/19 02:06:29;;;;;;;16.15;13.25;;;;;;;21.39;82.83;101425.41;7401077;19;19914;-78
2023/08/19 02:08:58;;;;;;;15.38;11.73;;;;;;;21.37;83.02;101430.28;7401129;19;19915;-78
2023/08/19 02:11:27;;;;;;;17.25;13.40;;;;;;;21.35;83.32;101429.69;7400746;19;19934;-79
2023/08/19 02:13:56;;;;;;;14.90;11.80;;;;;;;21.34;83.30;101436.22;7401702;19;19926;-78
2023/08/19 02:16:27;;;;;;;16.95;13.38;;;;;;;21.34;83.09;101434.34;7402246;19;19911;-78
2023/08/19 02:19:00;;;;;;;16.23;13.07;;;;;;;21.31;83.44;101426.59;7403964;19;19918;-77
2023/08/19 02:21:28;;;;;;;16.05;13.27;;;;;;;21.31;83.13;101414.78;7409088;19;19910;-78
2023/08/19 02:23:57;;;;;;;15.38;12.75;;;;;;;21.31;83.20;101426.59;7408721;19;19915;-78
2023/08/19 02:26:26;;;;;;;15.35;12.15;;;;;;;21.31;83.21;101421.09;7402148;19;19934;-77
2023/08/19 02:28:54;;;;;;;15.93;12.90;;;;;;;21.33;83.02;101424.44;7403598;19;20272;-77
2023/08/19 02:31:23;;;;;;;14.52;12.93;;;;;;;21.31;83.25;101417.53;7400612;19;19922;-77
2023/08/19 02:33:54;;;;;;;14.40;11.80;;;;;;;21.31;83.24;101415.63;7400622;19;19946;-78
2023/08/19 02:36:23;;;;;;;16.52;13.40;;;;;;;21.28;83.56;101416.91;7398829;19;19954;-78
2023/08/19 02:38:51;;;;;;;18.52;14.27;;;;;;;21.26;83.38;101418.22;7399747;19;19932;-78
2023/08/19 02:41:21;;;;;;;16.55;13.70;;;;;;;21.27;83.92;101415.22;7397707;19;20275;-78
2023/08/19 02:43:50;;;;;;;15.77;13.50;;;;;;;21.29;83.62;101417.75;7399557;19;20296;-78
2023/08/19 02:46:18;;;;;;;17.10;12.45;;;;;;;21.28;83.50;101411.44;7399271;19;19957;-78
2023/08/19 02:48:47;;;;;;;18.27;14.10;;;;;;;21.28;83.72;101414.16;7400673;19;20376;-78
2023/08/19 02:51:18;;;;;;;17.48;13.65;;;;;;;21.29;83.34;101415.00;7399407;19;19931;-78
2023/08/19 02:53:46;;;;;;;16.63;12.68;;;;;;;21.28;83.05;101405.94;7399059;19;19915;-78
2023/08/19 02:56:15;;;;;;;18.73;14.43;;;;;;;21.27;83.73;101408.91;7398161;19;20343;-77
2023/08/19 02:58:44;;;;;;;16.98;13.73;;;;;;;21.28;83.34;101410.59;7398821;19;19919;-77
2023/08/19 03:01:14;;;;;;;18.88;13.82;;;;;;;21.27;83.60;101408.91;7398719;19;19952;-78
2023/08/19 03:03:44;;;;;;;20.63;13.18;;;;;;;21.26;83.66;101405.38;7398873;19;20344;-78
2023/08/19 03:06:13;;;;;;;16.20;13.52;;;;;;;21.24;83.62;101399.25;7398985;19;20264;-77
2023/08/19 03:08:44;;;;;;;17.70;14.50;;;;;;;21.21;83.84;101398.91;7398582;19;20349;-78
2023/08/19 03:11:12;;;;;;;15.60;12.68;;;;;;;21.18;83.54;101393.91;7398576;19;19923;-78
2023/08/19 03:13:41;;;;;;;18.30;13.85;;;;;;;21.16;83.55;101390.53;7398004;19;20345;-78
2023/08/19 03:16:10;;;;;;;16.42;12.82;;;;;;;21.15;83.72;101388.88;7403139;19;19923;-78
2023/08/19 03:18:38;;;;;;;17.20;13.02;;;;;;;21.15;84.06;101392.44;7405621;19;19922;-78
2023/08/19 03:21:07;;;;;;;15.73;13.02;;;;;;;21.14;83.77;101388.03;7405409;19;19942;-78
2023/08/19 03:23:36;;;;;;;16.05;14.32;;;;;;;21.14;84.23;101385.28;7405964;19;19914;-78
2023/08/19 03:26:07;;;;;;;16.10;12.75;;;;;;;21.14;84.17;101379.81;7407175;19;19961;-78
2023/08/19 03:28:35;;;;;;;16.73;13.98;;;;;;;21.12;83.95;101383.84;7406792;19;19918;-77
2023/08/19 03:31:10;;;;;;;17.00;12.95;;;;;;;21.07;84.47;101378.22;7405561;19;19919;-78
2023/08/19 03:33:40;;;;;;;19.58;13.65;;;;;;;21.07;84.24;101370.84;7404787;19;19939;-77
2023/08/19 03:36:09;;;;;;;21.02;13.90;;;;;;;21.06;84.21;101376.53;7403813;19;19918;-77
2023/08/19 03:38:38;;;;;;;16.88;13.07;;;;;;;21.06;83.91;101373.78;7404765;19;19922;-78
2023/08/19 03:41:09;;;;;;;17.75;13.35;;;;;;;21.04;83.94;101382.28;7401904;19;19914;-77
2023/08/19 03:43:38;;;;;;;16.73;13.98;;;;;;;21.02;83.95;101375.34;7404484;19;20294;-77
2023/08/19 03:46:07;;;;;;;19.85;14.88;;;;;;;21.01;84.15;101371.75;7402894;19;19974;-77
2023/08/19 03:48:35;;;;;;;17.70;12.73;;;;;;;21.01;84.16;101363.53;7405902;19;20403;-78
2023/08/19 03:51:04;;;;;;;16.45;13.43;;;;;;;20.99;84.07;101365.69;7404214;19;20274;-78
2023/08/19 03:53:32;;;;;;;15.63;12.68;;;;;;;20.97;84.41;101370.56;7403752;19;19926;-77
2023/08/19 03:56:01;;;;;;;18.40;14.38;;;;;;;20.95;84.37;101369.13;7403693;19;19942;-77
2023/08/19 03:58:32;;;;;;;17.67;13.55;;;;;;;20.94;84.55;101370.19;7404369;19;19942;-78
2023/08/19 04:01:07;;;;;;;19.45;13.88;;;;;;;20.89;84.67;101370.88;7404676;19;19918;-77
2023/08/19 04:03:36;;;;;;;16.75;14.18;;;;;;;20.89;84.53;101361.84;7404536;19;19934;-78
2023/08/19 04:06:04;;;;;;;17.00;13.80;;;;;;;20.86;84.99;101368.63;7403506;19;19919;-77
2023/08/19 04:08:33;;;;;;;16.67;13.80;;;;;;;20.86;84.53;101367.78;7403744;19;19921;-77
2023/08/19 04:11:08;;;;;;;17.98;13.85;;;;;;;20.83;84.49;101366.34;7403735;19;19930;-77
2023/08/19 04:13:40;;;;;;;18.52;12.90;;;;;;;20.84;84.76;101378.97;7403342;19;20418;-77
2023/08/19 04:16:09;;;;;;;16.23;12.95;;;;;;;20.83;84.67;101377.31;7403381;19;20408;-77
2023/08/19 04:18:38;;;;;;;18.27;15.02;;;;;;;20.82;84.65;101364.69;7403496;19;19931;-78
2023/08/19 04:21:09;;;;;;;17.85;13.50;;;;;;;20.85;84.88;101372.41;7403434;19;19954;-77
2023/08/19 04:23:38;;;;;;;18.45;14.45;;;;;;;20.87;85.23;101370.31;7403203;19;20026;-78
2023/08/19 04:26:07;;;;;;;17.67;14.68;;;;;;;20.92;84.78;101364.13;7402277;19;19922;-78
2023/08/19 04:28:39;;;;;;;16.75;14.13;;;;;;;20.93;84.32;101374.00;7403103;19;19923;-77
2023/08/19 04:31:10;;;;;;;16.75;14.27;;;;;;;20.92;84.55;101364.13;7403329;19;20474;-78
2023/08/19 04:33:39;;;;;;;16.88;13.90;;;;;;;20.91;84.91;101359.72;7403473;19;19923;-78
2023/08/19 04:36:08;;;;;;;19.63;13.93;;;;;;;20.90;84.36;101364.34;7402824;19;20287;-77
2023/08/19 04:38:36;;;;;;;17.35;13.65;;;;;;;20.91;84.71;101367.94;7402901;19;19915;-78
2023/08/19 04:41:05;;;;;;;16.10;13.82;;;;;;;20.90;84.67;101369.81;7401011;19;20368;-77
2023/08/19 04:43:34;;;;;;;17.00;13.27;;;;;;;20.88;84.53;101366.50;7403032;19;19928;-77
2023/08/19 04:46:06;;;;;;;17.38;12.00;;;;;;;20.91;84.35;101359.72;7403061;19;20411;-78
2023/08/19 04:48:34;;;;;;;15.00;13.20;;;;;;;20.92;84.69;101361.38;7404143;19;20360;-77
2023/08/19 04:51:03;;;;;;;16.95;13.02;;;;;;;20.94;84.49;101368.28;7402431;19;19922;-77
2023/08/19 04:53:32;;;;;;;17.90;13.35;;;;;;;20.96;84.74;101368.91;7402484;19;19922;-77
2023/08/19 04:56:02;;;;;;;18.33;13.32;;;;;;;20.97;84.56;101376.03;7402744;19;20348;-77
2023/08/19 04:58:30;;;;;;;16.30;12.75;;;;;;;20.99;85.01;101379.38;7400419;19;19918;-77
2023/08/19 05:00:59;;;;;;;15.75;12.45;;;;;;;21.00;84.83;101375.59;7402943;19;19930;-78
2023/08/19 05:03:31;;;;;;;16.33;11.68;;;;;;;21.05;84.90;101377.63;7402785;19;20368;-78
2023/08/19 05:05:59;;;;;;;;;;;;;;;20.85;85.65;101369.69;7405415;19;19942;-77
2023/08/19 05:08:29;;;;;;;17.65;12.07;;;;;;;21.05;84.83;101380.38;7402457;19;19933;-78
2023/08/19 05:10:58;;;;;;;15.27;13.00;;;;;;;21.08;84.63;101372.50;7402813;19;19914;-77
2023/08/19 05:13:27;;;;;;;15.90;12.60;;;;;;;21.13;84.49;101378.16;7402467;19;19919;-78
2023/08/19 05:15:55;;;;;;;18.30;12.52;;;;;;;21.18;84.41;101369.25;7402283;19;19922;-78
2023/08/19 05:18:24;;;;;;;14.52;11.77;;;;;;;21.22;84.78;101362.22;7400378;19;19915;-78
2023/08/19 05:20:57;;;;;;;15.82;12.00;;;;;;;21.26;84.67;101368.91;7402596;19;19918;-78
2023/08/19 05:23:26;;;;;;;16.80;12.25;;;;;;;21.29;84.81;101376.63;7402444;19;19918;-78
2023/08/19 05:25:55;;;;;;;14.45;12.52;;;;;;;21.32;84.58;101373.41;7402667;19;19941;-78
2023/08/19 05:28:23;;;;;;;15.65;11.82;;;;;;;21.34;84.37;101371.28;7401002;19;20344;-78
2023/08/19 05:30:52;;;;;;;15.07;11.52;;;;;;;21.39;84.57;101368.69;7404633;19;20496;-78
2023/08/19 05:33:21;;;;;;;17.83;12.40;;;;;;;21.44;84.63;101367.97;7407380;19;19950;-77
2023/08/19 05:35:49;;;;;;;14.52;11.07;;;;;;;21.49;84.79;101370.81;7410412;19;19918;-77
2023/08/19 05:38:21;;;;;;;16.80;11.20;;;;;;;21.54;84.44;101365.47;7400821;19;19942;-77
2023/08/19 05:40:49;;;;;;;18.85;12.27;;;;;;;21.59;84.48;101365.59;7400243;19;19911;-78
2023/08/19 05:43:18;;;;;;;17.55;11.93;;;;;;;21.63;84.41;101367.63;7401228;19;19914;-77
2023/08/19 05:45:46;;;;;;;15.15;11.85;;;;;;;21.68;84.48;101370.50;7401249;19;20274;-78
2023/08/19 05:48:16;;;;;;;13.60;10.35;;;;;;;21.74;84.43;101375.00;7404072;19;19922;-77
2023/08/19 05:50:44;;;;;;;13.70;10.52;;;;;;;21.80;83.83;101372.38;7401168;19;19918;-78
2023/08/19 05:53:13;;;;;;;14.15;11.02;;;;;;;21.86;83.85;101382.41;7401029;19;19914;-78
2023/08/19 05:55:44;;;;;;;13.40;10.40;;;;;;;21.89;83.67;101384.66;7401135;19;19914;-78
2023/08/19 05:58:13;;;;;;;16.15;11.82;;;;;;;21.92;83.78;101373.22;7399633;19;20272;-78
2023/08/19 06:00:41;;;;;;;16.30;11.73;;;;;;;21.97;83.51;101370.63;7401077;19;19915;-78
2023/08/19 06:03:10;;;;;;;13.75;10.23;;;;;;;22.01;84.10;101369.06;7400799;19;19926;-78
2023/08/19 06:05:38;;;;;;;17.52;11.30;;;;;;;22.07;83.28;101376.34;7400876;19;20643;-78
2023/08/19 06:08:07;;;;;;;13.82;11.27;;;;;;;22.13;83.18;101372.66;7401218;19;19918;-78
2023/08/19 06:10:36;;;;;;;12.82;9.63;;;;;;;22.21;83.22;101363.22;7401016;19;19915;-78
2023/08/19 06:13:07;;;;;;;17.52;10.18;;;;;;;22.29;83.36;101366.41;7400798;19;20343;-77
2023/08/19 06:15:36;;;;;;;11.20;10.00;;;;;;;22.34;83.13;101361.03;7401641;19;19923;-78
2023/08/19 06:18:05;;;;;;;14.65;10.95;;;;;;;22.41;82.45;101371.84;7399805;19;19919;-78
2023/08/19 06:20:33;;;;;;;13.20;9.40;;;;;;;22.44;82.34;101363.13;7400594;19;19954;-78
2023/08/19 06:23:02;;;;;;;11.70;9.00;;;;;;;22.50;82.41;101376.72;7400519;19;19919;-78
2023/08/19 06:25:31;;;;;;;11.80;8.90;;;;;;;22.56;81.85;101372.19;7400325;19;19911;-78
2023/08/19 06:27:59;;;;;;;13.32;9.45;;;;;;;22.62;81.43;101372.03;7400268;19;19923;-78
2023/08/19 06:30:31;;;;;;;10.68;9.00;;;;;;;22.68;81.70;101374.88;7400067;19;19923;-78
2023/08/19 06:33:00;;;;;;;13.77;9.60;;;;;;;22.73;81.34;101372.28;7400654;19;19923;-77
2023/08/19 06:35:32;;;;;;;12.63;9.18;;;;;;;22.77;81.16;101377.03;7400247;19;20007;-78
2023/08/19 06:38:02;;;;;;;;;;;;;;;22.63;82.14;101386.59;7401536;19;19919;-78
2023/08/19 06:40:35;;;;;;;10.65;8.23;;;;;;;22.81;81.04;101385.63;7399632;19;19911;-78
2023/08/19 06:43:06;;;;;;;9.98;8.48;;;;;;;22.86;81.33;101391.22;7400387;19;19915;-78
2023/08/19 06:45:38;;;;;;;13.85;9.60;;;;;;;22.87;80.75;101382.72;7399753;19;20018;-78
2023/08/19 06:48:09;;;;;;;12.45;9.43;;;;;;;22.90;80.69;101386.91;7402162;19;19945;-78
2023/08/19 06:50:39;;;;;;;11.25;9.18;;;;;;;22.90;80.79;101382.25;7408950;19;19922;-78
2023/08/19 06:53:10;;;;;;;11.30;9.07;;;;;;;22.92;80.86;101377.31;7413297;19;19938;-78
2023/08/19 06:55:42;;;;;;;12.25;8.70;;;;;;;22.95;80.79;101381.50;7413540;19;19929;-78
2023/08/19 06:58:18;;;;;;;13.18;8.57;;;;;;;22.96;81.18;101380.41;7412282;19;19914;-78
2023/08/19 07:00:52;;;;;;;11.15;8.32;;;;;;;22.95;80.87;101387.81;7413657;19;19915;-78
2023/08/19 07:03:22;;;;;;;10.30;8.38;;;;;;;22.92;81.20;101388.31;7413275;19;19915;-78
2023/08/19 07:05:52;;;;;;;10.40;7.88;;;;;;;22.90;81.40;101392.38;7413219;19;19925;-78
2023/08/19 07:08:22;;;;;;;14.73;8.77;;;;;;;22.87;81.38;101390.94;7412932;19;19936;-78
2023/08/19 07:10:51;;;;;;;14.75;8.73;;;;;;;22.86;81.50;101392.06;7413219;19;19919;-78
2023/08/19 07:13:21;;;;;;;12.25;8.57;;;;;;;22.87;81.20;101384.63;7412400;19;19911;-78
2023/08/19 07:15:58;;;;;;;11.48;8.85;;;;;;;22.84;81.93;101387.88;7413170;19;20258;-78
2023/08/19 07:18:30;;;;;;;11.02;8.20;;;;;;;22.86;81.48;101385.72;7411781;19;19918;-78
2023/08/19 07:21:01;;;;;;;12.20;9.18;;;;;;;22.86;81.82;101388.47;7412807;19;19918;-78
2023/08/19 07:23:31;;;;;;;9.27;7.78;;;;;;;22.84;81.67;101387.88;7412748;19;20336;-78
2023/08/19 07:26:03;;;;;;;10.77;8.50;;;;;;;22.81;81.84;101386.44;7412618;19;20282;-78
2023/08/19 07:28:35;;;;;;;11.20;8.10;;;;;;;22.80;81.65;101372.94;7412326;19;19926;-78
2023/08/19 07:31:07;;;;;;;9.52;7.88;;;;;;;22.82;81.35;101379.06;7412205;19;19922;-78
2023/08/19 07:33:36;;;;;;;10.90;7.78;;;;;;;22.84;81.49;101379.63;7412274;19;19918;-78
2023/08/19 07:36:05;;;;;;;9.85;7.93;;;;;;;22.87;81.20;101381.88;7411464;19;19923;-78
2023/08/19 07:38:33;;;;;;;10.65;7.20;;;;;;;22.89;81.53;101385.22;7410406;19;20321;-78
2023/08/19 07:41:02;;;;;;;11.18;8.10;;;;;;;22.89;81.28;101385.22;7410644;19;19954;-79
2023/08/19 07:43:31;;;;;;;10.50;8.18;;;;;;;22.91;81.21;101386.63;7411891;19;19918;-79
2023/08/19 07:46:00;;;;;;;12.73;8.18;;;;;;;22.93;81.23;101386.41;7412170;19;19918;-78
2023/08/19 07:48:31;;;;;;;10.23;7.60;;;;;;;22.96;81.18;101386.72;7415651;19;19919;-78
2023/08/19 07:51:01;;;;;;;15.07;8.10;;;;;;;22.98;80.78;101392.81;7411900;19;19923;-78
2023/08/19 07:53:30;;;;;;;10.32;8.20;;;;;;;23.03;80.82;101400.34;7411846;19;19915;-78
2023/08/19 07:55:58;;;;;;;10.82;8.13;;;;;;;23.08;80.91;101394.94;7411745;19;19949;-78
2023/08/19 07:58:27;;;;;;;12.10;8.40;;;;;;;23.16;80.72;101396.44;7410990;19;19983;-78
2023/08/19 08:00:55;;;;;;;12.38;8.30;;;;;;;23.23;80.44;101402.59;7409420;19;19915;-78
2023/08/19 08:03:24;;;;;;;11.07;7.72;;;;;;;23.29;79.86;101412.63;7403342;19;19919;-77
2023/08/19 08:05:55;;;;;;;10.10;8.32;;;;;;;23.38;79.85;101408.41;7404191;19;19927;-78
2023/08/19 08:08:24;;;;;;;11.63;8.13;;;;;;;23.44;79.84;101411.00;7403879;19;20352;-78
2023/08/19 08:10:55;;;;;;;9.35;8.02;;;;;;;23.50;79.16;101412.78;7403756;19;20304;-78
2023/08/19 08:13:24;;;;;;;12.70;8.10;;;;;;;23.55;79.25;101411.19;7404062;19;19932;-78
2023/08/19 08:15:54;;;;;;;11.95;8.55;;;;;;;23.61;78.84;101415.66;7403717;19;19923;-78
2023/08/19 08:18:22;;;;;;;9.13;8.15;;;;;;;23.68;78.86;101430.94;7402184;19;19923;-78
2023/08/19 08:20:51;;;;;;;11.75;8.23;;;;;;;23.72;78.31;101432.13;7403530;19;19938;-78
2023/08/19 08:23:22;;;;;;;13.05;9.10;;;;;;;23.79;78.19;101437.44;7403605;19;19938;-78
2023/08/19 08:25:51;;;;;;;12.57;7.72;;;;;;;23.83;78.00;101431.19;7403447;19;19918;-78
2023/08/19 08:28:20;;;;;;;9.65;7.40;;;;;;;23.89;77.46;101434.84;7403746;19;20452;-78
2023/08/19 08:30:49;;;;;;;9.07;7.93;;;;;;;23.95;77.74;101431.06;7403409;19;19930;-78
2023/08/19 08:33:19;;;;;;;10.68;7.95;;;;;;;24.03;77.67;101427.09;7403093;19;19922;-78
2023/08/19 08:35:48;;;;;;;9.85;7.43;;;;;;;24.10;76.80;101423.06;7404166;19;20356;-78
2023/08/19 08:38:16;;;;;;;10.60;7.97;;;;;;;24.20;76.57;101427.91;7401906;19;19927;-78
2023/08/19 08:40:48;;;;;;;8.95;7.13;;;;;;;24.30;76.40;101430.78;7403581;19;19934;-78
2023/08/19 08:43:17;;;;;;;;;;;;;;;24.25;77.04;101434.31;7407954;19;19919;-78
2023/08/19 08:45:47;;;;;;;10.38;7.75;;;;;;;24.47;76.17;101430.75;7408263;19;19923;-78
2023/08/19 08:48:18;;;;;;;10.05;7.03;;;;;;;24.58;75.10;101427.88;7408641;19;19942;-78
2023/08/19 08:50:47;;;;;;;7.88;6.75;;;;;;;24.65;75.44;101430.44;7408105;19;20255;-77
2023/08/19 08:53:17;;;;;;;9.15;7.50;;;;;;;24.73;74.16;101413.44;7404358;19;19925;-77
2023/08/19 08:55:48;;;;;;;9.38;7.78;;;;;;;24.77;73.25;101415.44;7402865;19;19934;-78
2023/08/19 08:58:17;;;;;;;9.73;6.63;;;;;;;24.87;74.18;101414.75;7403041;19;20315;-78
2023/08/19 09:00:46;;;;;;;9.38;6.38;;;;;;;24.94;73.17;101417.31;7402298;19;19918;-77
2023/08/19 09:03:16;;;;;;;10.00;6.85;;;;;;;25.00;73.13;101408.00;7402526;19;20333;-76
2023/08/19 09:05:46;;;;;;;9.85;6.68;;;;;;;25.07;73.00;101412.22;7402587;19;19974;-77
2023/08/19 09:08:17;;;;;;;9.57;7.28;;;;;;;25.17;72.38;101403.22;7402870;19;19934;-77
2023/08/19 09:10:51;;;;;;;9.98;7.45;;;;;;;25.22;71.53;101400.50;7402151;19;19923;-77
2023/08/19 09:13:27;;;;;;;10.55;6.30;;;;;;;25.30;71.61;101397.28;7401776;19;20268;-78
2023/08/19 09:15:55;;;;;;;8.95;5.88;;;;;;;25.37;71.18;101394.31;7402096;19;20363;-77
2023/08/19 09:18:25;;;;;;;7.32;5.65;;;;;;;25.46;70.28;101401.00;7401326;19;19922;-77
2023/08/19 09:20:53;;;;;;;8.57;6.50;;;;;;;25.52;69.68;101402.72;7401893;19;19922;-77
2023/08/19 09:23:22;;;;;;;8.73;5.78;;;;;;;25.62;68.42;101394.56;7401836;19;20284;-77
2023/08/19 09:25:54;;;;;;;11.88;5.90;;;;;;;25.74;68.88;101403.47;7401802;19;19914;-77
2023/08/19 09:28:22;;;;;;;7.68;5.00;;;;;;;25.93;69.38;101401.13;7401934;19;19918;-78
2023/08/19 09:30:52;;;;;;;6.72;4.63;;;;;;;26.05;68.39;101399.84;7401284;19;19919;-77
2023/08/19 09:33:22;;;;;;;5.88;4.85;;;;;;;26.17;67.03;101403.22;7401822;19;20252;-77
2023/08/19 09:36:00;;;;;;;7.93;5.03;;;;;;;26.33;66.55;101401.38;7401488;19;19911;-77
2023/08/19 09:38:29;;;;;;;8.27;5.25;;;;;;;26.45;65.91;101399.22;7401055;19;19915;-77
2023/08/19 09:41:06;;;;;;;7.65;5.82;;;;;;;26.46;65.62;101400.91;7399762;19;19933;-77
2023/08/19 09:43:35;;;;;;;9.70;4.57;;;;;;;26.47;65.66;101407.25;7401686;19;19923;-77
2023/08/19 09:46:04;;;;;;;8.73;4.65;;;;;;;26.48;66.43;101406.16;7401490;19;19938;-77
2023/08/19 09:48:33;;;;;;;5.63;5.07;;;;;;;26.45;65.47;101417.72;7405074;19;19953;-77
2023/08/19 09:51:01;;;;;;;6.05;4.78;;;;;;;26.44;65.55;101407.81;7401226;19;20294;-77
2023/08/19 09:53:31;;;;;;;6.85;4.65;;;;;;;26.45;65.92;101404.75;7400974;19;19915;-77
2023/08/19 09:56:00;;;;;;;7.65;4.93;;;;;;;26.48;66.13;101425.50;7400713;19;19928;-76
2023/08/19 09:58:31;;;;;;;7.65;5.40;;;;;;;26.52;65.73;101410.88;7400376;19;19914;-78
2023/08/19 10:01:00;;;;;;;7.40;4.57;;;;;;;26.58;65.75;101417.25;7400857;19;19926;-77
2023/08/19 10:03:29;;;;;;;7.22;4.90;;;;;;;26.60;65.32;101435.25;7400598;19;19938;-77
2023/08/19 10:05:58;;;;;;;6.85;5.13;;;;;;;26.62;65.92;101437.75;7400841;19;19942;-78
2023/08/19 10:08:31;;;;;;;7.97;5.10;;;;;;;26.65;65.07;101439.97;7400574;19;19918;-78
2023/08/19 10:11:02;;;;;;;8.85;5.22;;;;;;;26.61;65.78;101436.06;7400739;19;19921;-78
2023/08/19 10:13:35;;;;;;;6.75;4.60;;;;;;;26.61;65.88;101436.06;7400700;19;20316;-77
2023/08/19 10:16:09;;;;;;;7.28;4.93;;;;;;;26.61;66.38;101431.38;7400480;19;19934;-77
2023/08/19 10:18:43;;;;;;;7.63;5.65;;;;;;;26.68;66.08;101424.75;7399649;19;20336;-77
2023/08/19 10:21:15;;;;;;;7.55;4.60;;;;;;;26.75;66.89;101423.41;7400693;19;19919;-77
2023/08/19 10:23:48;;;;;;;6.63;4.55;;;;;;;26.82;65.60;101424.00;7400038;19;19915;-77
2023/08/19 10:26:18;;;;;;;4.85;3.92;;;;;;;26.91;65.93;101425.16;7399652;19;19953;-77
2023/08/19 10:29:07;;;;;;;6.13;4.85;;;;;;;26.95;65.02;101425.44;7400334;19;19927;-78
2023/08/19 10:31:36;;;;;;;6.28;4.30;;;;;;;27.07;65.22;101429.63;7400372;19;19922;-77
2023/08/19 10:34:12;;;;;;;7.13;5.00;;;;;;;27.19;64.11;101442.34;7400303;19;19919;-77
2023/08/19 10:36:42;;;;;;;6.72;5.35;;;;;;;27.25;63.78;101446.81;7399597;19;19933;-78
2023/08/19 10:39:17;;;;;;;6.53;4.65;;;;;;;27.29;63.95;101454.28;7399374;19;19911;-77
2023/08/19 10:41:46;;;;;;;5.43;4.30;;;;;;;27.37;63.05;101447.38;7399578;19;20344;-77
2023/08/19 10:44:24;;;;;;;6.82;4.95;;;;;;;27.42;63.24;101453.75;7399981;19;19925;-77
2023/08/19 10:46:53;;;;;;;8.65;5.15;;;;;;;27.47;63.05;101456.56;7400378;19;19918;-77
2023/08/19 10:49:22;;;;;;;8.50;5.40;;;;;;;27.53;63.05;101463.75;7399182;19;19938;-78
2023/08/19 10:51:53;;;;;;;6.97;4.15;;;;;;;27.73;61.87;101457.41;7398960;19;20364;-78
2023/08/19 10:54:28;;;;;;;8.25;4.40;;;;;;;27.79;60.62;101452.69;7399456;19;19942;-77
2023/08/19 10:57:08;;;;;;;6.45;4.80;;;;;;;27.74;60.88;101442.44;7399860;19;19945;-77
2023/08/19 10:59:41;;;;;;;8.77;4.13;;;;;;;27.74;61.57;101456.28;7397760;19;19919;-78
2023/08/19 11:02:11;;;;;;;6.45;4.60;;;;;;;27.71;61.43;101459.63;7398601;19;19935;-77
2023/08/19 11:04:43;;;;;;;10.10;4.75;;;;;;;27.71;60.41;101456.84;7398713;19;19942;-77
2023/08/19 11:07:12;;;;;;;8.80;4.50;;;;;;;27.71;61.42;101456.84;7399017;19;19930;-77
2023/08/19 11:09:43;;;;;;;8.25;4.80;;;;;;;27.64;60.69;101456.31;7398820;19;19921;-77
2023/08/19 11:12:12;;;;;;;6.63;4.72;;;;;;;27.54;61.83;101461.81;7398882;19;19927;-76
2023/08/19 11:14:48;;;;;;;7.70;5.28;;;;;;;27.31;61.92;101476.16;7399024;19;19951;-77
2023/08/19 11:17:17;;;;;;;6.65;5.05;;;;;;;27.17;62.68;101472.25;7398177;19;20257;-78
2023/08/19 11:19:46;;;;;;;11.07;4.78;;;;;;;27.00;63.69;101459.47;7396913;19;19958;-77
2023/08/19 11:22:15;;;;;;;9.02;5.18;;;;;;;26.87;67.26;101437.88;7398316;19;20268;-76
2023/08/19 11:24:44;;;;;;;6.65;5.43;;;;;;;26.77;67.35;101436.97;7397815;19;19921;-75
2023/08/19 11:27:13;;;;;;;8.55;6.15;;;;;;;26.62;67.57;101433.03;7397723;19;19918;-76
2023/08/19 11:29:47;;;;;;;9.80;5.50;;;;;;;26.52;68.76;101448.75;7397464;19;20372;-76